createdAt,value
2017-03-10T00:00:47.083Z,99.99
2017-03-10T00:01:47.742Z,99.99
2017-03-10T00:02:48.404Z,99.99
2017-03-10T00:03:49.077Z,99.99
2017-03-10T00:04:49.744Z,99.3
2017-03-10T00:05:50.443Z,99.3
2017-03-10T00:06:51.106Z,99.02
2017-03-10T00:07:51.785Z,99.11
2017-03-10T00:08:52.428Z,99.99
2017-03-10T00:09:53.090Z,99.99
2017-03-10T00:10:53.749Z,99.99
2017-03-10T00:11:54.417Z,99.99
2017-03-10T00:12:55.097Z,99.99
2017-03-10T00:13:55.789Z,99.97
2017-03-10T00:14:56.434Z,99.99
2017-03-10T00:15:57.086Z,99.99
2017-03-10T00:16:57.737Z,99.99
2017-03-10T00:17:58.404Z,99.99
2017-03-10T00:18:59.069Z,99.99
2017-03-10T00:19:59.766Z,99.99
2017-03-10T00:21:00.421Z,99.99
2017-03-10T00:22:01.190Z,99.99
2017-03-10T00:23:01.868Z,99.99
2017-03-10T00:24:02.510Z,99.99
2017-03-10T00:25:03.176Z,99.99
2017-03-10T00:26:03.822Z,99.99
2017-03-10T00:27:04.503Z,99.99
2017-03-10T00:28:05.147Z,99.99
2017-03-10T00:29:05.801Z,99.99
2017-03-10T00:30:06.471Z,99.99
2017-03-10T00:31:07.117Z,99.99
2017-03-10T00:32:07.777Z,99.99
2017-03-10T00:33:08.439Z,99.99
2017-03-10T00:34:09.107Z,99.99
2017-03-10T00:35:09.780Z,99.99
2017-03-10T00:36:10.426Z,99.99
2017-03-10T00:37:11.082Z,99.99
2017-03-10T00:38:11.752Z,99.99
2017-03-10T00:39:12.410Z,99.99
2017-03-10T00:40:13.088Z,99.99
2017-03-10T00:41:13.763Z,99.99
2017-03-10T00:42:14.425Z,99.99
2017-03-10T00:43:15.092Z,99.99
2017-03-10T00:44:15.810Z,99.99
2017-03-10T00:45:16.470Z,99.99
2017-03-10T00:46:17.131Z,99.99
2017-03-10T00:47:17.804Z,99.99
2017-03-10T00:48:18.455Z,99.99
2017-03-10T00:49:19.093Z,99.99
2017-03-10T00:50:19.763Z,99.99
2017-03-10T00:51:20.419Z,99.99
2017-03-10T00:52:21.075Z,99.99
2017-03-10T00:53:21.710Z,99.99
2017-03-10T00:54:22.402Z,99.99
2017-03-10T00:55:23.067Z,99.99
2017-03-10T00:56:23.742Z,99.99
2017-03-10T00:57:24.414Z,99.99
2017-03-10T00:58:25.067Z,99.99
2017-03-10T00:59:25.722Z,99.99
2017-03-10T01:00:26.391Z,99.99
2017-03-10T01:01:27.057Z,99.99
2017-03-10T01:02:27.741Z,99.99
2017-03-10T01:03:28.410Z,99.99
2017-03-10T01:04:29.067Z,99.99
2017-03-10T01:05:29.733Z,99.99
2017-03-10T01:06:30.408Z,99.99
2017-03-10T01:07:31.089Z,99.99
2017-03-10T01:08:31.758Z,99.99
2017-03-10T01:09:32.468Z,99.99
2017-03-10T01:10:33.112Z,99.99
2017-03-10T01:11:33.780Z,99.99
2017-03-10T01:12:34.448Z,99.99
2017-03-10T01:13:35.110Z,99.99
2017-03-10T01:14:35.777Z,99.99
2017-03-10T01:15:36.424Z,99.99
2017-03-10T01:16:37.079Z,99.99
2017-03-10T01:17:37.743Z,99.99
2017-03-10T01:18:38.429Z,99.99
2017-03-10T01:19:39.119Z,99.99
2017-03-10T01:20:39.794Z,99.99
2017-03-10T01:21:40.450Z,99.99
2017-03-10T01:22:41.113Z,99.99
2017-03-10T01:23:41.802Z,99.99
2017-03-10T01:24:42.483Z,99.99
2017-03-10T01:25:43.128Z,99.99
2017-03-10T01:26:43.818Z,99.99
2017-03-10T01:27:44.477Z,99.99
2017-03-10T01:28:45.150Z,99.99
2017-03-10T01:29:45.817Z,99.99
2017-03-10T01:30:46.484Z,99.99
2017-03-10T01:31:47.127Z,99.99
2017-03-10T01:32:47.791Z,99.99
2017-03-10T01:33:48.460Z,99.99
2017-03-10T01:34:49.095Z,99.99
2017-03-10T01:35:49.770Z,99.99
2017-03-10T01:36:50.426Z,99.99
2017-03-10T01:37:51.089Z,99.99
2017-03-10T01:38:51.828Z,99.99
2017-03-10T01:39:52.537Z,99.99
2017-03-10T01:40:53.185Z,99.99
2017-03-10T01:41:53.842Z,99.99
2017-03-10T01:42:54.516Z,99.99
2017-03-10T01:43:55.186Z,99.99
2017-03-10T01:44:55.856Z,99.99
2017-03-10T01:45:56.532Z,99.99
2017-03-10T01:46:57.194Z,99.99
2017-03-10T01:47:57.866Z,99.99
2017-03-10T01:48:58.553Z,99.99
2017-03-10T01:49:59.224Z,99.99
2017-03-10T01:50:59.895Z,99.99
2017-03-10T01:52:00.558Z,99.99
2017-03-10T01:53:01.229Z,99.99
2017-03-10T01:54:01.880Z,99.99
2017-03-10T01:55:02.568Z,99.99
2017-03-10T01:56:03.216Z,99.99
2017-03-10T01:57:03.874Z,99.99
2017-03-10T01:58:04.545Z,99.99
2017-03-10T01:59:05.214Z,99.99
2017-03-10T02:00:05.863Z,99.99
2017-03-10T02:01:06.636Z,99.99
2017-03-10T02:02:07.294Z,99.99
2017-03-10T02:03:07.961Z,99.99
2017-03-10T02:04:08.623Z,99.99
2017-03-10T02:05:09.384Z,99.99
2017-03-10T02:06:10.080Z,99.99
2017-03-10T02:07:10.744Z,99.99
2017-03-10T02:08:11.422Z,99.99
2017-03-10T02:09:12.093Z,99.99
2017-03-10T02:10:12.752Z,99.99
2017-03-10T02:11:13.414Z,99.99
2017-03-10T02:12:14.084Z,99.99
2017-03-10T02:13:14.751Z,99.99
2017-03-10T02:14:15.417Z,99.99
2017-03-10T02:15:16.075Z,99.99
2017-03-10T02:16:16.725Z,99.99
2017-03-10T02:17:17.389Z,99.99
2017-03-10T02:18:18.038Z,99.99
2017-03-10T02:19:18.699Z,99.99
2017-03-10T02:20:19.429Z,99.99
2017-03-10T02:21:20.085Z,99.99
2017-03-10T02:22:20.744Z,99.99
2017-03-10T02:23:21.410Z,99.99
2017-03-10T02:24:22.080Z,99.99
2017-03-10T02:25:22.741Z,99.99
2017-03-10T02:26:23.423Z,99.99
2017-03-10T02:27:24.100Z,99.99
2017-03-10T02:28:24.762Z,99.99
2017-03-10T02:29:25.440Z,99.99
2017-03-10T02:30:26.115Z,99.99
2017-03-10T02:31:26.796Z,99.99
2017-03-10T02:32:27.455Z,99.99
2017-03-10T02:33:28.125Z,99.99
2017-03-10T02:34:28.799Z,99.99
2017-03-10T02:35:29.473Z,99.99
2017-03-10T02:36:30.143Z,99.99
2017-03-10T02:37:30.821Z,99.99
2017-03-10T02:38:31.492Z,99.99
2017-03-10T02:39:32.165Z,99.99
2017-03-10T02:40:32.836Z,99.99
2017-03-10T02:41:33.466Z,99.99
2017-03-10T02:42:34.137Z,99.99
2017-03-10T02:43:34.794Z,99.99
2017-03-10T02:44:35.487Z,99.99
2017-03-10T02:45:36.139Z,99.99
2017-03-10T02:46:36.795Z,99.99
2017-03-10T02:47:37.448Z,99.99
2017-03-10T02:48:38.124Z,99.99
2017-03-10T02:49:38.781Z,99.99
2017-03-10T02:50:39.453Z,99.99
2017-03-10T02:51:40.129Z,99.99
2017-03-10T02:52:40.810Z,99.99
2017-03-10T02:53:41.465Z,99.99
2017-03-10T02:54:42.104Z,99.99
2017-03-10T02:55:42.766Z,99.99
2017-03-10T02:56:43.415Z,99.99
2017-03-10T02:57:44.061Z,99.99
2017-03-10T02:58:44.764Z,99.99
2017-03-10T02:59:45.411Z,99.99
2017-03-10T03:00:46.069Z,99.99
2017-03-10T03:01:46.725Z,99.99
2017-03-10T03:02:47.388Z,99.99
2017-03-10T03:03:48.039Z,99.99
2017-03-10T03:04:48.719Z,99.99
2017-03-10T03:05:49.388Z,99.99
2017-03-10T03:06:50.046Z,99.99
2017-03-10T03:07:50.703Z,99.99
2017-03-10T03:08:51.364Z,99.99
2017-03-10T03:09:52.017Z,99.99
2017-03-10T03:10:52.660Z,99.99
2017-03-10T03:11:53.335Z,99.99
2017-03-10T03:12:53.997Z,99.99
2017-03-10T03:13:54.656Z,99.99
2017-03-10T03:14:55.326Z,99.99
2017-03-10T03:15:55.983Z,99.99
2017-03-10T03:16:56.628Z,99.99
2017-03-10T03:17:57.296Z,99.99
2017-03-10T03:18:57.977Z,99.99
2017-03-10T03:19:58.636Z,99.99
2017-03-10T03:20:59.301Z,99.99
2017-03-10T03:21:59.955Z,99.99
2017-03-10T03:23:00.605Z,99.99
2017-03-10T03:24:01.251Z,99.99
2017-03-10T03:25:01.910Z,99.99
2017-03-10T03:26:02.560Z,99.99
2017-03-10T03:27:03.207Z,99.99
2017-03-10T03:28:03.867Z,99.99
2017-03-10T03:29:04.526Z,99.99
2017-03-10T03:30:05.334Z,99.99
2017-03-10T03:31:05.937Z,99.99
2017-03-10T03:32:06.597Z,99.99
2017-03-10T03:33:07.239Z,99.99
2017-03-10T03:34:07.896Z,99.99
2017-03-10T03:35:08.564Z,99.99
2017-03-10T03:36:09.214Z,99.99
2017-03-10T03:37:09.880Z,99.99
2017-03-10T03:38:10.533Z,99.99
2017-03-10T03:39:11.212Z,99.99
2017-03-10T03:40:11.870Z,99.99
2017-03-10T03:41:12.516Z,99.99
2017-03-10T03:42:13.171Z,99.99
2017-03-10T03:43:13.830Z,99.99
2017-03-10T03:44:14.521Z,99.99
2017-03-10T03:45:15.185Z,99.99
2017-03-10T03:46:15.861Z,99.99
2017-03-10T03:47:16.523Z,99.99
2017-03-10T03:48:17.292Z,99.99
2017-03-10T03:49:17.965Z,99.99
2017-03-10T03:50:18.760Z,99.99
2017-03-10T03:51:19.417Z,99.99
2017-03-10T03:52:20.082Z,99.99
2017-03-10T03:53:20.735Z,99.99
2017-03-10T03:54:21.408Z,99.99
2017-03-10T03:55:22.074Z,99.99
2017-03-10T03:56:22.742Z,99.99
2017-03-10T03:57:23.410Z,99.99
2017-03-10T03:58:24.065Z,99.99
2017-03-10T03:59:24.724Z,99.99
2017-03-10T04:00:25.438Z,99.99
2017-03-10T04:01:26.106Z,99.99
2017-03-10T04:02:26.763Z,99.99
2017-03-10T04:03:27.419Z,99.99
2017-03-10T04:04:28.072Z,99.99
2017-03-10T04:05:28.729Z,99.99
2017-03-10T04:06:29.390Z,99.99
2017-03-10T04:07:30.052Z,99.99
2017-03-10T04:08:30.696Z,99.99
2017-03-10T04:09:31.453Z,99.99
2017-03-10T04:10:32.110Z,99.99
2017-03-10T04:11:32.781Z,99.99
2017-03-10T04:12:33.421Z,99.99
2017-03-10T04:13:34.076Z,99.99
2017-03-10T04:14:34.743Z,99.99
2017-03-10T04:15:35.382Z,99.99
2017-03-10T04:16:36.041Z,99.99
2017-03-10T04:17:36.714Z,99.99
2017-03-10T04:18:37.432Z,99.99
2017-03-10T04:19:38.110Z,99.99
2017-03-10T04:20:38.767Z,99.99
2017-03-10T04:21:39.422Z,99.99
2017-03-10T04:22:40.084Z,99.99
2017-03-10T04:23:40.754Z,99.99
2017-03-10T04:24:41.440Z,99.99
2017-03-10T04:25:42.137Z,99.99
2017-03-10T04:26:42.844Z,99.99
2017-03-10T04:27:43.495Z,99.99
2017-03-10T04:28:44.155Z,99.99
2017-03-10T04:29:44.810Z,99.99
2017-03-10T04:30:45.462Z,99.99
2017-03-10T04:31:46.120Z,99.99
2017-03-10T04:32:46.777Z,99.99
2017-03-10T04:33:47.460Z,99.99
2017-03-10T04:34:48.123Z,99.99
2017-03-10T04:35:48.772Z,99.99
2017-03-10T04:36:49.446Z,99.99
2017-03-10T04:37:50.099Z,99.99
2017-03-10T04:38:50.779Z,99.99
2017-03-10T04:39:51.433Z,99.99
2017-03-10T04:40:52.089Z,99.99
2017-03-10T04:41:52.744Z,99.99
2017-03-10T04:42:53.400Z,99.99
2017-03-10T04:43:54.042Z,99.99
2017-03-10T04:44:54.687Z,99.99
2017-03-10T04:45:55.382Z,99.99
2017-03-10T04:46:56.038Z,99.99
2017-03-10T04:47:56.706Z,99.99
2017-03-10T04:48:57.384Z,99.99
2017-03-10T04:49:58.034Z,99.99
2017-03-10T04:50:58.698Z,99.99
2017-03-10T04:51:59.348Z,99.99
2017-03-10T04:53:00.041Z,99.99
2017-03-10T04:54:00.731Z,99.99
2017-03-10T04:55:01.393Z,99.99
2017-03-10T04:56:02.058Z,99.99
2017-03-10T04:57:02.720Z,99.99
2017-03-10T04:58:03.389Z,99.99
2017-03-10T04:59:04.066Z,99.99
2017-03-10T05:00:04.739Z,99.99
2017-03-10T05:01:05.401Z,99.99
2017-03-10T05:02:06.060Z,99.99
2017-03-10T05:03:06.715Z,99.99
2017-03-10T05:04:07.393Z,99.99
2017-03-10T05:05:08.063Z,99.99
2017-03-10T05:06:08.728Z,99.99
2017-03-10T05:07:09.398Z,99.99
2017-03-10T05:08:10.068Z,99.99
2017-03-10T05:09:10.751Z,99.99
2017-03-10T05:10:11.396Z,99.99
2017-03-10T05:11:12.056Z,99.99
2017-03-10T05:12:12.716Z,99.99
2017-03-10T05:13:13.380Z,99.99
2017-03-10T05:14:14.038Z,99.99
2017-03-10T05:15:14.710Z,99.99
2017-03-10T05:16:15.340Z,99.99
2017-03-10T05:17:16.016Z,99.99
2017-03-10T05:18:16.683Z,99.99
2017-03-10T05:19:17.374Z,99.99
2017-03-10T05:20:18.049Z,99.99
2017-03-10T05:21:18.709Z,99.99
2017-03-10T05:22:19.373Z,99.99
2017-03-10T05:23:20.049Z,99.99
2017-03-10T05:24:20.706Z,99.99
2017-03-10T05:25:21.390Z,99.99
2017-03-10T05:26:22.020Z,99.99
2017-03-10T05:27:22.679Z,99.99
2017-03-10T05:28:23.444Z,99.99
2017-03-10T05:29:24.114Z,99.99
2017-03-10T05:30:24.768Z,99.99
2017-03-10T05:31:25.423Z,99.99
2017-03-10T05:32:26.086Z,99.99
2017-03-10T05:33:26.736Z,99.99
2017-03-10T05:34:27.390Z,99.99
2017-03-10T05:35:28.047Z,99.99
2017-03-10T05:36:28.706Z,99.99
2017-03-10T05:37:29.356Z,99.99
2017-03-10T05:38:30.028Z,99.99
2017-03-10T05:39:30.679Z,99.99
2017-03-10T05:40:31.344Z,99.99
2017-03-10T05:41:32.024Z,99.99
2017-03-10T05:42:32.695Z,99.99
2017-03-10T05:43:33.362Z,99.99
2017-03-10T05:44:34.026Z,99.99
2017-03-10T05:45:34.694Z,99.99
2017-03-10T05:46:35.354Z,99.99
2017-03-10T05:47:36.002Z,99.99
2017-03-10T05:48:36.660Z,99.99
2017-03-10T05:49:37.331Z,99.99
2017-03-10T05:50:38.001Z,99.99
2017-03-10T05:51:38.685Z,99.99
2017-03-10T05:52:39.315Z,99.99
2017-03-10T05:53:39.960Z,99.99
2017-03-10T05:54:40.608Z,99.99
2017-03-10T05:55:41.313Z,99.99
2017-03-10T05:56:41.973Z,99.99
2017-03-10T05:57:42.642Z,99.99
2017-03-10T05:58:43.299Z,99.99
2017-03-10T05:59:43.958Z,99.99
2017-03-10T06:00:44.616Z,99.99
2017-03-10T06:01:45.293Z,99.99
2017-03-10T06:02:45.940Z,99.99
2017-03-10T06:03:46.598Z,99.99
2017-03-10T06:04:47.257Z,99.99
2017-03-10T06:05:47.932Z,99.99
2017-03-10T06:06:48.598Z,99.99
2017-03-10T06:07:49.274Z,99.99
2017-03-10T06:08:49.943Z,99.99
2017-03-10T06:09:50.596Z,99.99
2017-03-10T06:10:51.262Z,99.99
2017-03-10T06:11:51.950Z,99.99
2017-03-10T06:12:52.628Z,99.99
2017-03-10T06:13:53.281Z,99.99
2017-03-10T06:14:53.954Z,99.99
2017-03-10T06:15:54.606Z,99.99
2017-03-10T06:16:55.258Z,99.99
2017-03-10T06:17:55.911Z,99.99
2017-03-10T06:18:56.572Z,99.99
2017-03-10T06:19:57.237Z,99.99
2017-03-10T06:20:57.901Z,99.99
2017-03-10T06:21:58.559Z,99.99
2017-03-10T06:22:59.204Z,99.99
2017-03-10T06:23:59.849Z,99.99
2017-03-10T06:25:00.511Z,99.99
2017-03-10T06:26:01.161Z,99.99
2017-03-10T06:27:01.828Z,99.99
2017-03-10T06:28:02.501Z,99.99
2017-03-10T06:29:03.187Z,99.99
2017-03-10T06:30:03.858Z,99.99
2017-03-10T06:31:04.531Z,99.99
2017-03-10T06:32:05.240Z,99.99
2017-03-10T06:33:05.899Z,99.99
2017-03-10T06:34:06.577Z,99.99
2017-03-10T06:35:07.230Z,99.99
2017-03-10T06:36:07.911Z,99.99
2017-03-10T06:37:08.632Z,99.99
2017-03-10T06:38:09.277Z,99.99
2017-03-10T06:39:09.946Z,99.99
2017-03-10T06:40:10.642Z,99.99
2017-03-10T06:41:11.298Z,99.99
2017-03-10T06:42:11.957Z,99.99
2017-03-10T06:43:12.636Z,99.99
2017-03-10T06:44:13.677Z,99.99
2017-03-10T06:45:14.315Z,99.99
2017-03-10T06:46:14.959Z,99.99
2017-03-10T06:47:15.612Z,99.99
2017-03-10T06:48:16.298Z,99.99
2017-03-10T06:49:16.943Z,99.99
2017-03-10T06:50:17.625Z,99.99
2017-03-10T06:51:18.283Z,99.99
2017-03-10T06:52:18.958Z,99.99
2017-03-10T06:53:19.604Z,99.99
2017-03-10T06:54:20.263Z,99.99
2017-03-10T06:55:20.915Z,99.99
2017-03-10T06:56:21.595Z,99.99
2017-03-10T06:57:22.243Z,99.99
2017-03-10T06:58:22.891Z,99.99
2017-03-10T06:59:23.545Z,99.99
2017-03-10T07:00:24.208Z,99.99
2017-03-10T07:01:24.902Z,99.99
2017-03-10T07:02:25.566Z,99.99
2017-03-10T07:03:26.220Z,99.99
2017-03-10T07:04:26.889Z,99.99
2017-03-10T07:05:27.540Z,99.99
2017-03-10T07:06:28.225Z,99.99
2017-03-10T07:07:28.881Z,99.99
2017-03-10T07:08:29.612Z,99.99
2017-03-10T07:09:30.349Z,99.99
2017-03-10T07:10:30.998Z,99.99
2017-03-10T07:11:31.663Z,99.99
2017-03-10T07:12:32.340Z,99.99
2017-03-10T07:13:33.016Z,99.99
2017-03-10T07:14:33.686Z,99.99
2017-03-10T07:15:34.371Z,99.99
2017-03-10T07:16:35.031Z,99.99
2017-03-10T07:17:36.964Z,99.99
2017-03-10T07:18:38.494Z,99.99
2017-03-10T07:19:40.191Z,99.99
2017-03-10T07:20:41.855Z,99.99
2017-03-10T07:21:43.700Z,99.99
2017-03-10T07:22:44.384Z,99.99
2017-03-10T07:23:45.058Z,99.99
2017-03-10T07:24:45.807Z,99.99
2017-03-10T07:25:46.462Z,99.99
2017-03-10T07:26:47.127Z,99.99
2017-03-10T07:27:47.802Z,99.99
2017-03-10T07:28:48.481Z,99.99
2017-03-10T07:29:49.148Z,99.99
2017-03-10T07:30:49.962Z,99.99
2017-03-10T07:31:50.602Z,99.99
2017-03-10T07:32:51.271Z,99.99
2017-03-10T07:33:51.949Z,99.99
2017-03-10T07:34:52.612Z,99.99
2017-03-10T07:35:53.290Z,99.99
2017-03-10T07:36:54.736Z,99.83
2017-03-10T07:37:56.335Z,99.99
2017-03-10T07:38:57.033Z,99.44
2017-03-10T07:39:57.716Z,99.99
2017-03-10T07:40:58.380Z,99.92
2017-03-10T07:41:59.040Z,99.83
2017-03-10T07:42:59.688Z,99.99
2017-03-10T07:44:00.347Z,99.64
2017-03-10T07:45:01.033Z,99.44
2017-03-10T07:46:01.706Z,98.97
2017-03-10T07:47:02.423Z,98.83
2017-03-10T07:48:03.083Z,98.79
2017-03-10T07:49:03.723Z,98.88
2017-03-10T07:50:04.389Z,98.17
2017-03-10T07:51:05.056Z,98.26
2017-03-10T07:52:05.723Z,97.69
2017-03-10T07:53:06.391Z,97.12
2017-03-10T07:54:07.040Z,96.93
2017-03-10T07:55:07.693Z,97.03
2017-03-10T07:56:08.358Z,96.26
2017-03-10T07:57:09.184Z,95.89
2017-03-10T07:58:09.912Z,96.36
2017-03-10T07:59:10.597Z,95.7
2017-03-10T08:00:11.251Z,95.79
2017-03-10T08:01:11.909Z,95.51
2017-03-10T08:02:12.571Z,96.36
2017-03-10T08:03:13.368Z,96.26
2017-03-10T08:04:14.090Z,95.89
2017-03-10T08:05:14.692Z,95.22
2017-03-10T08:06:15.645Z,95.03
2017-03-10T08:07:16.306Z,95.22
2017-03-10T08:08:16.967Z,95.03
2017-03-10T08:09:18.754Z,95.32
2017-03-10T08:10:19.478Z,95.7
2017-03-10T08:11:20.603Z,95.32
2017-03-10T08:12:21.365Z,95.22
2017-03-10T08:13:22.175Z,94.84
2017-03-10T08:14:23.001Z,94.56
2017-03-10T08:15:23.686Z,94.93
2017-03-10T08:16:25.098Z,94.46
2017-03-10T08:17:25.872Z,94.27
2017-03-10T08:18:26.660Z,94.13
2017-03-10T08:19:28.237Z,93.46
2017-03-10T08:20:29.479Z,93.65
2017-03-10T08:21:30.223Z,92.94
2017-03-10T08:22:31.292Z,93.13
2017-03-10T08:23:32.701Z,93.65
2017-03-10T08:24:33.614Z,93.13
2017-03-10T08:25:34.870Z,93.65
2017-03-10T08:26:35.535Z,92.99
2017-03-10T08:27:36.200Z,92.22
2017-03-10T08:28:36.878Z,90.7
2017-03-10T08:29:38.353Z,90.23
2017-03-10T08:30:39.975Z,89.94
2017-03-10T08:31:41.295Z,89.75
2017-03-10T08:32:42.012Z,89.56
2017-03-10T08:33:42.751Z,89.47
2017-03-10T08:34:43.426Z,89.47
2017-03-10T08:35:44.394Z,89.47
2017-03-10T08:36:45.177Z,88.42
2017-03-10T08:37:45.922Z,88.33
2017-03-10T08:38:46.581Z,88.9
2017-03-10T08:39:47.242Z,89.37
2017-03-10T08:40:47.970Z,89.28
2017-03-10T08:41:48.682Z,89.56
2017-03-10T08:42:49.372Z,88.9
2017-03-10T08:43:50.056Z,89.47
2017-03-10T08:44:50.715Z,89.28
2017-03-10T08:45:51.371Z,88.9
2017-03-10T08:46:52.037Z,89.09
2017-03-10T08:47:52.699Z,89.47
2017-03-10T08:48:53.353Z,89.56
2017-03-10T08:49:54.008Z,88.71
2017-03-10T08:50:54.671Z,88.9
2017-03-10T08:51:55.329Z,88.61
2017-03-10T08:52:56.001Z,88.61
2017-03-10T08:53:56.671Z,89.47
2017-03-10T08:54:57.345Z,88.8
2017-03-10T08:55:57.997Z,88.8
2017-03-10T08:56:58.696Z,88.8
2017-03-10T08:57:59.366Z,88.8
2017-03-10T08:59:00.014Z,88.8
2017-03-10T09:00:00.681Z,89
2017-03-10T09:01:01.324Z,89.18
2017-03-10T09:02:01.992Z,89.37
2017-03-10T09:03:02.667Z,89.56
2017-03-10T09:04:03.338Z,90.33
2017-03-10T09:05:04.019Z,90.33
2017-03-10T09:06:04.679Z,90.04
2017-03-10T09:07:05.326Z,90.61
2017-03-10T09:08:06.012Z,90.04
2017-03-10T09:09:06.667Z,89.56
2017-03-10T09:10:07.374Z,89.94
2017-03-10T09:11:08.060Z,90.42
2017-03-10T09:12:08.756Z,90.14
2017-03-10T09:13:09.423Z,90.33
2017-03-10T09:14:10.083Z,90.42
2017-03-10T09:15:10.800Z,90.61
2017-03-10T09:16:11.475Z,90.7
2017-03-10T09:17:12.146Z,90.61
2017-03-10T09:18:12.814Z,90.04
2017-03-10T09:19:13.494Z,90.52
2017-03-10T09:20:14.171Z,90.33
2017-03-10T09:21:14.822Z,90.61
2017-03-10T09:22:15.486Z,90.42
2017-03-10T09:23:16.148Z,90.7
2017-03-10T09:24:16.814Z,90.23
2017-03-10T09:25:17.475Z,91.08
2017-03-10T09:26:18.137Z,90.61
2017-03-10T09:27:18.819Z,90.61
2017-03-10T09:28:19.483Z,90.89
2017-03-10T09:29:20.155Z,90.7
2017-03-10T09:30:20.847Z,90.89
2017-03-10T09:31:21.500Z,90.89
2017-03-10T09:32:22.176Z,90.89
2017-03-10T09:33:22.842Z,90.14
2017-03-10T09:34:23.514Z,89.85
2017-03-10T09:35:24.262Z,89.66
2017-03-10T09:36:24.937Z,89.37
2017-03-10T09:37:25.659Z,89.75
2017-03-10T09:38:26.406Z,89
2017-03-10T09:39:27.129Z,88.52
2017-03-10T09:40:27.803Z,88.85
2017-03-10T09:41:28.474Z,88.52
2017-03-10T09:42:29.262Z,88.04
2017-03-10T09:43:29.925Z,88.18
2017-03-10T09:44:30.555Z,87.61
2017-03-10T09:45:31.229Z,86.94
2017-03-10T09:46:31.945Z,86.57
2017-03-10T09:47:32.616Z,86.66
2017-03-10T09:48:33.289Z,87.52
2017-03-10T09:49:33.956Z,86.76
2017-03-10T09:50:34.636Z,86.18
2017-03-10T09:51:35.300Z,86.47
2017-03-10T09:52:35.988Z,86.28
2017-03-10T09:53:36.671Z,86.47
2017-03-10T09:54:37.326Z,86.28
2017-03-10T09:55:38.002Z,86.76
2017-03-10T09:56:38.662Z,87.04
2017-03-10T09:57:39.342Z,86.94
2017-03-10T09:58:40.015Z,86.66
2017-03-10T09:59:40.693Z,86.57
2017-03-10T10:00:41.379Z,86.57
2017-03-10T10:01:42.056Z,86.09
2017-03-10T10:02:42.736Z,86.28
2017-03-10T10:03:43.405Z,86.18
2017-03-10T10:04:44.082Z,86.28
2017-03-10T10:05:44.745Z,86.09
2017-03-10T10:06:45.460Z,85.9
2017-03-10T10:07:46.134Z,85.8
2017-03-10T10:08:46.827Z,85.33
2017-03-10T10:09:47.519Z,85.14
2017-03-10T10:10:48.177Z,85.18
2017-03-10T10:11:48.867Z,84.8
2017-03-10T10:12:49.524Z,84.13
2017-03-10T10:13:50.193Z,83.14
2017-03-10T10:14:50.850Z,83.81
2017-03-10T10:15:51.531Z,84
2017-03-10T10:16:52.234Z,83.42
2017-03-10T10:17:52.906Z,83.37
2017-03-10T10:18:53.557Z,83.23
2017-03-10T10:19:54.221Z,83.56
2017-03-10T10:20:54.964Z,83.75
2017-03-10T10:21:55.652Z,82.99
2017-03-10T10:22:56.316Z,83.65
2017-03-10T10:23:56.993Z,83.09
2017-03-10T10:24:57.644Z,83.18
2017-03-10T10:25:58.366Z,83.28
2017-03-10T10:26:59.009Z,82.7
2017-03-10T10:27:59.663Z,82.99
2017-03-10T10:29:00.328Z,82.42
2017-03-10T10:30:01.014Z,81.37
2017-03-10T10:31:01.686Z,81.09
2017-03-10T10:32:02.376Z,81.37
2017-03-10T10:33:03.076Z,81.09
2017-03-10T10:34:03.735Z,80.9
2017-03-10T10:35:04.406Z,81.37
2017-03-10T10:36:05.065Z,80.8
2017-03-10T10:37:05.734Z,80.9
2017-03-10T10:38:06.423Z,79.19
2017-03-10T10:39:07.094Z,79.57
2017-03-10T10:40:07.771Z,79.75
2017-03-10T10:41:08.434Z,78.99
2017-03-10T10:42:09.106Z,79.38
2017-03-10T10:43:09.764Z,79.47
2017-03-10T10:44:10.428Z,78.99
2017-03-10T10:45:11.110Z,79.38
2017-03-10T10:46:11.784Z,78.9
2017-03-10T10:47:12.471Z,78.71
2017-03-10T10:48:13.128Z,78.71
2017-03-10T10:49:13.797Z,78.33
2017-03-10T10:50:14.459Z,78.52
2017-03-10T10:51:15.130Z,77.85
2017-03-10T10:52:15.798Z,78.33
2017-03-10T10:53:16.465Z,78.33
2017-03-10T10:54:17.127Z,78.23
2017-03-10T10:55:17.793Z,77.85
2017-03-10T10:56:18.448Z,77.95
2017-03-10T10:57:19.118Z,77.85
2017-03-10T10:58:19.820Z,77.66
2017-03-10T10:59:20.525Z,77.98
2017-03-10T11:00:21.186Z,77.8
2017-03-10T11:01:21.843Z,77.7
2017-03-10T11:02:22.525Z,78.08
2017-03-10T11:03:23.203Z,77.8
2017-03-10T11:04:23.870Z,77.32
2017-03-10T11:05:24.533Z,76.65
2017-03-10T11:06:25.209Z,76.65
2017-03-10T11:07:25.901Z,77.42
2017-03-10T11:08:26.569Z,76.37
2017-03-10T11:09:27.232Z,75.99
2017-03-10T11:10:27.933Z,76.37
2017-03-10T11:11:28.619Z,77.22
2017-03-10T11:12:29.284Z,76.84
2017-03-10T11:13:29.968Z,76.65
2017-03-10T11:14:30.637Z,75.99
2017-03-10T11:15:31.312Z,76.27
2017-03-10T11:16:31.985Z,75.6
2017-03-10T11:17:32.648Z,75.55
2017-03-10T11:18:33.300Z,75.51
2017-03-10T11:19:33.999Z,75.89
2017-03-10T11:20:34.648Z,75.6
2017-03-10T11:21:35.328Z,75.6
2017-03-10T11:22:35.999Z,76.37
2017-03-10T11:23:36.647Z,77.03
2017-03-10T11:24:37.314Z,76.56
2017-03-10T11:25:37.987Z,76.56
2017-03-10T11:26:38.697Z,76.37
2017-03-10T11:27:39.371Z,75.7
2017-03-10T11:28:40.061Z,75.23
2017-03-10T11:29:40.714Z,75.6
2017-03-10T11:30:41.383Z,75.42
2017-03-10T11:31:42.060Z,75.7
2017-03-10T11:32:42.709Z,75.7
2017-03-10T11:33:43.355Z,74.56
2017-03-10T11:34:44.019Z,73.32
2017-03-10T11:35:44.681Z,73.41
2017-03-10T11:36:45.346Z,73.85
2017-03-10T11:37:46.015Z,73.38
2017-03-10T11:38:46.671Z,73.66
2017-03-10T11:39:47.356Z,74.33
2017-03-10T11:40:48.016Z,74.24
2017-03-10T11:41:48.688Z,74.14
2017-03-10T11:42:49.346Z,74.37
2017-03-10T11:43:50.019Z,73.89
2017-03-10T11:44:50.679Z,73.32
2017-03-10T11:45:51.357Z,73.7
2017-03-10T11:46:52.049Z,74.75
2017-03-10T11:47:52.716Z,74.75
2017-03-10T11:48:53.463Z,74.75
2017-03-10T11:49:54.109Z,74.94
2017-03-10T11:50:54.767Z,74.75
2017-03-10T11:51:55.447Z,73.8
2017-03-10T11:52:56.131Z,74.56
2017-03-10T11:53:56.795Z,73.7
2017-03-10T11:54:57.475Z,74.08
2017-03-10T11:55:58.136Z,74.08
2017-03-10T11:56:58.895Z,74.27
2017-03-10T11:57:59.561Z,74.56
2017-03-10T11:59:00.249Z,74.27
2017-03-10T12:00:00.927Z,74.08
2017-03-10T12:01:01.589Z,74.18
2017-03-10T12:02:02.259Z,73.32
2017-03-10T12:03:02.952Z,73.61
2017-03-10T12:04:03.609Z,73.8
2017-03-10T12:05:04.288Z,73.32
2017-03-10T12:06:04.947Z,73.13
2017-03-10T12:07:05.626Z,73.7
2017-03-10T12:08:06.314Z,74.56
2017-03-10T12:09:06.977Z,73.89
2017-03-10T12:10:07.652Z,73.89
2017-03-10T12:11:08.320Z,73.89
2017-03-10T12:12:08.992Z,73.22
2017-03-10T12:13:09.651Z,72.75
2017-03-10T12:14:10.313Z,72.75
2017-03-10T12:15:10.973Z,72.27
2017-03-10T12:16:11.645Z,71.51
2017-03-10T12:17:12.311Z,70.75
2017-03-10T12:18:12.963Z,70.84
2017-03-10T12:19:13.639Z,71.22
2017-03-10T12:20:14.320Z,71.89
2017-03-10T12:21:14.973Z,72.17
2017-03-10T12:22:15.652Z,72.56
2017-03-10T12:23:16.323Z,72.46
2017-03-10T12:24:17.016Z,72.65
2017-03-10T12:25:17.673Z,72.69
2017-03-10T12:26:18.346Z,73.51
2017-03-10T12:27:19.026Z,73.83
2017-03-10T12:28:19.699Z,74.12
2017-03-10T12:29:20.363Z,73.13
2017-03-10T12:30:21.028Z,73.41
2017-03-10T12:31:21.700Z,73.61
2017-03-10T12:32:22.366Z,73.55
2017-03-10T12:33:23.037Z,73.61
2017-03-10T12:34:23.711Z,73.45
2017-03-10T12:35:24.395Z,74.56
2017-03-10T12:36:25.053Z,74.79
2017-03-10T12:37:25.721Z,74.79
2017-03-10T12:38:26.454Z,74.5
2017-03-10T12:39:27.134Z,74.94
2017-03-10T12:40:27.780Z,75.7
2017-03-10T12:41:28.463Z,75.79
2017-03-10T12:42:29.125Z,75.99
2017-03-10T12:43:29.800Z,76.37
2017-03-10T12:44:30.468Z,76.08
2017-03-10T12:45:31.143Z,76.27
2017-03-10T12:46:31.810Z,75.79
2017-03-10T12:47:32.473Z,76.08
2017-03-10T12:48:33.134Z,75.64
2017-03-10T12:49:33.810Z,75.07
2017-03-10T12:50:34.486Z,74.69
2017-03-10T12:51:35.162Z,74.69
2017-03-10T12:52:35.824Z,74.31
2017-03-10T12:53:36.524Z,73.93
2017-03-10T12:54:37.201Z,73.17
2017-03-10T12:55:37.880Z,72.65
2017-03-10T12:56:38.545Z,71.89
2017-03-10T12:57:39.240Z,71.83
2017-03-10T12:58:39.914Z,71.7
2017-03-10T12:59:40.609Z,70.78
2017-03-10T13:00:41.265Z,70.84
2017-03-10T13:01:41.917Z,70.65
2017-03-10T13:02:42.588Z,70.69
2017-03-10T13:03:43.289Z,70.94